sensor_id;sensor_type;location;lat;lon;timestamp;P1;durP1;ratioP1;P2;durP2;ratioP2
17614;SDS011;8926;49.720;6.576;2022-10-16T00:00:58;1.03;;;0.30;;
17614;SDS011;8926;49.720;6.576;2022-10-16T00:03:30;0.30;;;0.30;;
17614;SDS011;8926;49.720;6.576;2022-10-16T00:05:58;0.30;;;0.30;;
17614;SDS011;8926;49.720;6.576;2022-10-16T00:08:24;0.40;;;0.40;;
17614;SDS011;8926;49.720;6.576;2022-10-16T00:10:50;0.47;;;0.47;;
17614;SDS011;8926;49.720;6.576;2022-10-16T00:13:15;0.40;;;0.40;;
17614;SDS011;8926;49.720;6.576;2022-10-16T00:15:42;0.40;;;0.40;;
17614;SDS011;8926;49.720;6.576;2022-10-16T00:18:09;0.37;;;0.30;;
17614;SDS011;8926;49.720;6.576;2022-10-16T00:20:35;0.47;;;0.47;;
17614;SDS011;8926;49.720;6.576;2022-10-16T00:23:02;0.40;;;0.40;;
17614;SDS011;8926;49.720;6.576;2022-10-16T00:25:28;0.20;;;0.20;;
17614;SDS011;8926;49.720;6.576;2022-10-16T00:27:53;0.43;;;0.43;;
17614;SDS011;8926;49.720;6.576;2022-10-16T00:30:19;0.47;;;0.47;;
17614;SDS011;8926;49.720;6.576;2022-10-16T00:32:44;0.30;;;0.30;;
17614;SDS011;8926;49.720;6.576;2022-10-16T00:35:09;0.50;;;0.50;;
17614;SDS011;8926;49.720;6.576;2022-10-16T00:37:35;0.40;;;0.40;;
17614;SDS011;8926;49.720;6.576;2022-10-16T00:40:00;0.50;;;0.50;;
17614;SDS011;8926;49.720;6.576;2022-10-16T00:42:25;0.50;;;0.50;;
17614;SDS011;8926;49.720;6.576;2022-10-16T00:44:55;0.60;;;0.60;;
17614;SDS011;8926;49.720;6.576;2022-10-16T00:47:26;0.77;;;0.70;;
17614;SDS011;8926;49.720;6.576;2022-10-16T00:50:00;0.63;;;0.50;;
17614;SDS011;8926;49.720;6.576;2022-10-16T00:52:31;0.60;;;0.60;;
17614;SDS011;8926;49.720;6.576;2022-10-16T00:54:57;0.50;;;0.50;;
17614;SDS011;8926;49.720;6.576;2022-10-16T00:57:23;1.27;;;0.70;;
17614;SDS011;8926;49.720;6.576;2022-10-16T00:59:50;0.70;;;0.70;;
17614;SDS011;8926;49.720;6.576;2022-10-16T01:02:16;0.97;;;0.63;;
17614;SDS011;8926;49.720;6.576;2022-10-16T01:04:43;1.37;;;0.93;;
17614;SDS011;8926;49.720;6.576;2022-10-16T01:10:31;1.40;;;0.77;;
17614;SDS011;8926;49.720;6.576;2022-10-16T01:12:59;0.70;;;0.70;;
17614;SDS011;8926;49.720;6.576;2022-10-16T01:15:37;0.50;;;0.50;;
17614;SDS011;8926;49.720;6.576;2022-10-16T01:18:24;0.70;;;0.70;;
17614;SDS011;8926;49.720;6.576;2022-10-16T01:21:03;0.50;;;0.50;;
17614;SDS011;8926;49.720;6.576;2022-10-16T01:26:49;0.57;;;0.57;;
17614;SDS011;8926;49.720;6.576;2022-10-16T01:32:03;0.40;;;0.40;;
17614;SDS011;8926;49.720;6.576;2022-10-16T01:34:38;0.53;;;0.30;;
17614;SDS011;8926;49.720;6.576;2022-10-16T01:37:21;0.20;;;0.20;;
17614;SDS011;8926;49.720;6.576;2022-10-16T01:39:54;0.30;;;0.30;;
17614;SDS011;8926;49.720;6.576;2022-10-16T01:42:25;0.30;;;0.30;;
17614;SDS011;8926;49.720;6.576;2022-10-16T01:44:56;0.20;;;0.20;;
17614;SDS011;8926;49.720;6.576;2022-10-16T01:47:24;0.40;;;0.40;;
17614;SDS011;8926;49.720;6.576;2022-10-16T01:49:52;0.40;;;0.40;;
17614;SDS011;8926;49.720;6.576;2022-10-16T01:52:21;0.27;;;0.27;;
17614;SDS011;8926;49.720;6.576;2022-10-16T01:54:50;0.33;;;0.33;;
17614;SDS011;8926;49.720;6.576;2022-10-16T01:57:18;0.67;;;0.30;;
17614;SDS011;8926;49.720;6.576;2022-10-16T01:59:47;0.40;;;0.40;;
17614;SDS011;8926;49.720;6.576;2022-10-16T02:02:17;0.50;;;0.33;;
17614;SDS011;8926;49.720;6.576;2022-10-16T02:04:46;0.40;;;0.40;;
17614;SDS011;8926;49.720;6.576;2022-10-16T02:07:18;0.40;;;0.40;;
17614;SDS011;8926;49.720;6.576;2022-10-16T02:09:43;0.50;;;0.37;;
17614;SDS011;8926;49.720;6.576;2022-10-16T02:12:31;0.30;;;0.30;;
17614;SDS011;8926;49.720;6.576;2022-10-16T02:14:57;0.37;;;0.37;;
17614;SDS011;8926;49.720;6.576;2022-10-16T02:17:22;0.30;;;0.30;;
17614;SDS011;8926;49.720;6.576;2022-10-16T02:19:49;0.30;;;0.30;;
17614;SDS011;8926;49.720;6.576;2022-10-16T02:22:20;0.23;;;0.23;;
17614;SDS011;8926;49.720;6.576;2022-10-16T02:24:53;0.30;;;0.30;;
17614;SDS011;8926;49.720;6.576;2022-10-16T02:27:53;0.40;;;0.30;;
17614;SDS011;8926;49.720;6.576;2022-10-16T02:32:54;0.30;;;0.30;;
17614;SDS011;8926;49.720;6.576;2022-10-16T02:35:22;0.37;;;0.37;;
17614;SDS011;8926;49.720;6.576;2022-10-16T02:37:49;0.30;;;0.30;;
17614;SDS011;8926;49.720;6.576;2022-10-16T02:40:16;0.20;;;0.20;;
17614;SDS011;8926;49.720;6.576;2022-10-16T02:42:42;0.20;;;0.20;;
17614;SDS011;8926;49.720;6.576;2022-10-16T02:45:08;0.20;;;0.20;;
17614;SDS011;8926;49.720;6.576;2022-10-16T02:47:34;0.23;;;0.23;;
17614;SDS011;8926;49.720;6.576;2022-10-16T02:49:59;1.90;;;0.20;;
17614;SDS011;8926;49.720;6.576;2022-10-16T02:52:25;0.30;;;0.30;;
17614;SDS011;8926;49.720;6.576;2022-10-16T02:54:50;0.27;;;0.27;;
17614;SDS011;8926;49.720;6.576;2022-10-16T02:57:16;0.30;;;0.30;;
17614;SDS011;8926;49.720;6.576;2022-10-16T02:59:42;0.20;;;0.20;;
17614;SDS011;8926;49.720;6.576;2022-10-16T03:02:07;0.30;;;0.30;;
17614;SDS011;8926;49.720;6.576;2022-10-16T03:04:32;2.20;;;0.50;;
17614;SDS011;8926;49.720;6.576;2022-10-16T03:06:58;0.50;;;0.50;;
17614;SDS011;8926;49.720;6.576;2022-10-16T03:09:23;0.37;;;0.37;;
17614;SDS011;8926;49.720;6.576;2022-10-16T03:11:48;0.40;;;0.40;;
17614;SDS011;8926;49.720;6.576;2022-10-16T03:14:14;0.30;;;0.30;;
17614;SDS011;8926;49.720;6.576;2022-10-16T03:16:39;0.30;;;0.30;;
17614;SDS011;8926;49.720;6.576;2022-10-16T03:19:04;0.67;;;0.40;;
17614;SDS011;8926;49.720;6.576;2022-10-16T03:21:30;0.30;;;0.30;;
17614;SDS011;8926;49.720;6.576;2022-10-16T03:23:55;0.27;;;0.27;;
17614;SDS011;8926;49.720;6.576;2022-10-16T03:26:20;0.20;;;0.20;;
17614;SDS011;8926;49.720;6.576;2022-10-16T03:28:46;0.20;;;0.20;;
17614;SDS011;8926;49.720;6.576;2022-10-16T03:31:11;0.40;;;0.40;;
17614;SDS011;8926;49.720;6.576;2022-10-16T03:33:36;0.20;;;0.20;;
17614;SDS011;8926;49.720;6.576;2022-10-16T03:36:01;0.40;;;0.40;;
17614;SDS011;8926;49.720;6.576;2022-10-16T03:38:27;0.67;;;0.30;;
17614;SDS011;8926;49.720;6.576;2022-10-16T03:40:52;0.30;;;0.30;;
17614;SDS011;8926;49.720;6.576;2022-10-16T03:43:18;0.23;;;0.23;;
17614;SDS011;8926;49.720;6.576;2022-10-16T03:45:43;0.30;;;0.30;;
17614;SDS011;8926;49.720;6.576;2022-10-16T03:48:08;0.30;;;0.30;;
17614;SDS011;8926;49.720;6.576;2022-10-16T03:50:34;0.30;;;0.30;;
17614;SDS011;8926;49.720;6.576;2022-10-16T03:52:59;0.97;;;0.40;;
17614;SDS011;8926;49.720;6.576;2022-10-16T03:55:24;0.57;;;0.57;;
17614;SDS011;8926;49.720;6.576;2022-10-16T03:57:50;0.50;;;0.50;;
17614;SDS011;8926;49.720;6.576;2022-10-16T04:00:15;0.30;;;0.30;;
17614;SDS011;8926;49.720;6.576;2022-10-16T04:02:40;0.40;;;0.40;;
17614;SDS011;8926;49.720;6.576;2022-10-16T04:05:06;0.33;;;0.33;;
17614;SDS011;8926;49.720;6.576;2022-10-16T04:07:31;0.83;;;0.47;;
17614;SDS011;8926;49.720;6.576;2022-10-16T04:09:57;0.30;;;0.30;;
17614;SDS011;8926;49.720;6.576;2022-10-16T04:12:23;0.20;;;0.20;;
17614;SDS011;8926;49.720;6.576;2022-10-16T04:14:49;0.40;;;0.20;;
17614;SDS011;8926;49.720;6.576;2022-10-16T04:17:14;0.30;;;0.30;;
17614;SDS011;8926;49.720;6.576;2022-10-16T04:19:39;0.40;;;0.40;;
17614;SDS011;8926;49.720;6.576;2022-10-16T04:22:05;0.50;;;0.50;;
17614;SDS011;8926;49.720;6.576;2022-10-16T04:24:30;0.50;;;0.50;;
17614;SDS011;8926;49.720;6.576;2022-10-16T04:26:55;0.47;;;0.47;;
17614;SDS011;8926;49.720;6.576;2022-10-16T04:29:21;0.33;;;0.33;;
17614;SDS011;8926;49.720;6.576;2022-10-16T04:31:46;0.40;;;0.40;;
17614;SDS011;8926;49.720;6.576;2022-10-16T04:34:12;0.60;;;0.40;;
17614;SDS011;8926;49.720;6.576;2022-10-16T04:36:37;0.20;;;0.20;;
17614;SDS011;8926;49.720;6.576;2022-10-16T04:39:02;0.47;;;0.47;;
17614;SDS011;8926;49.720;6.576;2022-10-16T04:41:28;0.67;;;0.30;;
17614;SDS011;8926;49.720;6.576;2022-10-16T04:43:53;0.23;;;0.23;;
17614;SDS011;8926;49.720;6.576;2022-10-16T04:46:18;0.30;;;0.30;;
17614;SDS011;8926;49.720;6.576;2022-10-16T04:48:44;0.67;;;0.27;;
17614;SDS011;8926;49.720;6.576;2022-10-16T04:51:09;0.30;;;0.30;;
17614;SDS011;8926;49.720;6.576;2022-10-16T04:53:35;0.37;;;0.37;;
17614;SDS011;8926;49.720;6.576;2022-10-16T04:56:01;0.43;;;0.33;;
17614;SDS011;8926;49.720;6.576;2022-10-16T04:58:26;0.30;;;0.30;;
17614;SDS011;8926;49.720;6.576;2022-10-16T05:00:52;0.30;;;0.30;;
17614;SDS011;8926;49.720;6.576;2022-10-16T05:03:17;0.30;;;0.30;;
17614;SDS011;8926;49.720;6.576;2022-10-16T05:05:43;0.30;;;0.30;;
17614;SDS011;8926;49.720;6.576;2022-10-16T05:08:11;0.20;;;0.20;;
17614;SDS011;8926;49.720;6.576;2022-10-16T05:10:42;0.20;;;0.20;;
17614;SDS011;8926;49.720;6.576;2022-10-16T05:13:09;0.30;;;0.30;;
17614;SDS011;8926;49.720;6.576;2022-10-16T05:15:34;0.50;;;0.50;;
17614;SDS011;8926;49.720;6.576;2022-10-16T05:18:00;0.30;;;0.30;;
17614;SDS011;8926;49.720;6.576;2022-10-16T05:20:25;0.10;;;0.10;;
17614;SDS011;8926;49.720;6.576;2022-10-16T05:22:51;0.60;;;0.40;;
17614;SDS011;8926;49.720;6.576;2022-10-16T05:25:16;0.40;;;0.40;;
17614;SDS011;8926;49.720;6.576;2022-10-16T05:27:42;0.23;;;0.23;;
17614;SDS011;8926;49.720;6.576;2022-10-16T05:30:07;0.30;;;0.30;;
17614;SDS011;8926;49.720;6.576;2022-10-16T05:32:33;0.20;;;0.20;;
17614;SDS011;8926;49.720;6.576;2022-10-16T05:34:58;0.20;;;0.20;;
17614;SDS011;8926;49.720;6.576;2022-10-16T05:37:25;0.20;;;0.20;;
17614;SDS011;8926;49.720;6.576;2022-10-16T05:39:50;0.30;;;0.30;;
17614;SDS011;8926;49.720;6.576;2022-10-16T05:42:16;0.10;;;0.10;;
17614;SDS011;8926;49.720;6.576;2022-10-16T05:44:41;0.30;;;0.30;;
17614;SDS011;8926;49.720;6.576;2022-10-16T05:47:06;0.20;;;0.20;;
17614;SDS011;8926;49.720;6.576;2022-10-16T05:49:31;0.10;;;0.10;;
17614;SDS011;8926;49.720;6.576;2022-10-16T05:51:57;0.20;;;0.20;;
17614;SDS011;8926;49.720;6.576;2022-10-16T05:54:22;0.20;;;0.20;;
17614;SDS011;8926;49.720;6.576;2022-10-16T05:56:47;0.20;;;0.20;;
17614;SDS011;8926;49.720;6.576;2022-10-16T05:59:13;0.20;;;0.20;;
17614;SDS011;8926;49.720;6.576;2022-10-16T06:01:38;0.20;;;0.20;;
17614;SDS011;8926;49.720;6.576;2022-10-16T06:04:03;0.10;;;0.10;;
17614;SDS011;8926;49.720;6.576;2022-10-16T06:06:29;0.30;;;0.20;;
17614;SDS011;8926;49.720;6.576;2022-10-16T06:08:56;0.33;;;0.20;;
17614;SDS011;8926;49.720;6.576;2022-10-16T06:11:22;0.20;;;0.20;;
17614;SDS011;8926;49.720;6.576;2022-10-16T06:13:54;0.40;;;0.40;;
17614;SDS011;8926;49.720;6.576;2022-10-16T06:16:22;0.20;;;0.20;;
17614;SDS011;8926;49.720;6.576;2022-10-16T06:18:50;0.20;;;0.20;;
17614;SDS011;8926;49.720;6.576;2022-10-16T06:21:16;0.20;;;0.20;;
17614;SDS011;8926;49.720;6.576;2022-10-16T06:23:44;0.30;;;0.30;;
17614;SDS011;8926;49.720;6.576;2022-10-16T06:26:13;0.30;;;0.30;;
17614;SDS011;8926;49.720;6.576;2022-10-16T06:28:40;0.40;;;0.40;;
17614;SDS011;8926;49.720;6.576;2022-10-16T06:31:06;0.50;;;0.37;;
17614;SDS011;8926;49.720;6.576;2022-10-16T06:33:33;0.40;;;0.20;;
17614;SDS011;8926;49.720;6.576;2022-10-16T06:36:00;0.23;;;0.23;;
17614;SDS011;8926;49.720;6.576;2022-10-16T06:38:30;0.30;;;0.30;;
17614;SDS011;8926;49.720;6.576;2022-10-16T06:40:56;0.30;;;0.30;;
17614;SDS011;8926;49.720;6.576;2022-10-16T06:43:21;0.30;;;0.30;;
17614;SDS011;8926;49.720;6.576;2022-10-16T06:45:51;0.60;;;0.60;;
17614;SDS011;8926;49.720;6.576;2022-10-16T06:48:20;0.30;;;0.30;;
17614;SDS011;8926;49.720;6.576;2022-10-16T06:51:05;0.30;;;0.30;;
17614;SDS011;8926;49.720;6.576;2022-10-16T06:53:34;0.30;;;0.20;;
17614;SDS011;8926;49.720;6.576;2022-10-16T06:56:08;0.20;;;0.20;;
17614;SDS011;8926;49.720;6.576;2022-10-16T06:58:37;0.17;;;0.17;;
17614;SDS011;8926;49.720;6.576;2022-10-16T07:01:05;0.17;;;0.17;;
17614;SDS011;8926;49.720;6.576;2022-10-16T07:03:32;0.10;;;0.10;;
17614;SDS011;8926;49.720;6.576;2022-10-16T07:06:00;0.67;;;0.20;;
17614;SDS011;8926;49.720;6.576;2022-10-16T07:08:30;0.10;;;0.10;;
17614;SDS011;8926;49.720;6.576;2022-10-16T07:10:59;0.30;;;0.30;;
17614;SDS011;8926;49.720;6.576;2022-10-16T07:13:26;0.33;;;0.23;;
17614;SDS011;8926;49.720;6.576;2022-10-16T07:15:51;0.50;;;0.20;;
17614;SDS011;8926;49.720;6.576;2022-10-16T07:18:17;0.40;;;0.40;;
17614;SDS011;8926;49.720;6.576;2022-10-16T07:20:42;0.40;;;0.40;;
17614;SDS011;8926;49.720;6.576;2022-10-16T07:23:07;0.50;;;0.50;;
17614;SDS011;8926;49.720;6.576;2022-10-16T07:25:32;1.33;;;0.50;;
17614;SDS011;8926;49.720;6.576;2022-10-16T07:27:58;0.60;;;0.60;;
17614;SDS011;8926;49.720;6.576;2022-10-16T07:30:23;0.40;;;0.40;;
17614;SDS011;8926;49.720;6.576;2022-10-16T07:32:48;0.50;;;0.50;;
17614;SDS011;8926;49.720;6.576;2022-10-16T07:35:14;0.37;;;0.37;;
17614;SDS011;8926;49.720;6.576;2022-10-16T07:37:39;0.53;;;0.50;;
17614;SDS011;8926;49.720;6.576;2022-10-16T07:40:04;0.40;;;0.40;;
17614;SDS011;8926;49.720;6.576;2022-10-16T07:42:30;0.60;;;0.50;;
17614;SDS011;8926;49.720;6.576;2022-10-16T07:44:55;2.30;;;0.60;;
17614;SDS011;8926;49.720;6.576;2022-10-16T07:47:21;0.60;;;0.60;;
17614;SDS011;8926;49.720;6.576;2022-10-16T07:49:46;0.70;;;0.70;;
17614;SDS011;8926;49.720;6.576;2022-10-16T07:52:11;0.63;;;0.63;;
17614;SDS011;8926;49.720;6.576;2022-10-16T07:54:37;0.53;;;0.40;;
17614;SDS011;8926;49.720;6.576;2022-10-16T07:57:02;0.30;;;0.30;;
17614;SDS011;8926;49.720;6.576;2022-10-16T07:59:27;0.57;;;0.40;;
17614;SDS011;8926;49.720;6.576;2022-10-16T08:01:52;0.43;;;0.43;;
17614;SDS011;8926;49.720;6.576;2022-10-16T08:04:18;0.40;;;0.40;;
17614;SDS011;8926;49.720;6.576;2022-10-16T08:06:43;0.40;;;0.40;;
17614;SDS011;8926;49.720;6.576;2022-10-16T08:09:08;0.40;;;0.40;;
17614;SDS011;8926;49.720;6.576;2022-10-16T08:11:34;0.30;;;0.30;;
17614;SDS011;8926;49.720;6.576;2022-10-16T08:13:59;0.43;;;0.43;;
17614;SDS011;8926;49.720;6.576;2022-10-16T08:16:25;0.70;;;0.70;;
17614;SDS011;8926;49.720;6.576;2022-10-16T08:18:50;0.70;;;0.70;;
17614;SDS011;8926;49.720;6.576;2022-10-16T08:21:17;0.90;;;0.90;;
17614;SDS011;8926;49.720;6.576;2022-10-16T08:23:45;0.80;;;0.70;;
17614;SDS011;8926;49.720;6.576;2022-10-16T08:26:11;1.27;;;0.87;;
17614;SDS011;8926;49.720;6.576;2022-10-16T08:28:37;0.60;;;0.60;;
17614;SDS011;8926;49.720;6.576;2022-10-16T08:31:06;1.23;;;0.70;;
17614;SDS011;8926;49.720;6.576;2022-10-16T08:33:40;0.60;;;0.60;;
17614;SDS011;8926;49.720;6.576;2022-10-16T08:36:07;0.70;;;0.70;;
17614;SDS011;8926;49.720;6.576;2022-10-16T08:38:34;0.40;;;0.40;;
17614;SDS011;8926;49.720;6.576;2022-10-16T08:47:22;0.67;;;0.67;;
17614;SDS011;8926;49.720;6.576;2022-10-16T08:49:55;0.57;;;0.57;;
17614;SDS011;8926;49.720;6.576;2022-10-16T08:52:23;1.33;;;0.97;;
17614;SDS011;8926;49.720;6.576;2022-10-16T08:54:53;1.30;;;1.30;;
17614;SDS011;8926;49.720;6.576;2022-10-16T08:57:20;1.10;;;1.10;;
17614;SDS011;8926;49.720;6.576;2022-10-16T08:59:48;1.30;;;1.20;;
17614;SDS011;8926;49.720;6.576;2022-10-16T09:13:12;2.07;;;1.87;;
17614;SDS011;8926;49.720;6.576;2022-10-16T09:18:37;4.23;;;3.83;;
17614;SDS011;8926;49.720;6.576;2022-10-16T09:23:40;2.17;;;1.60;;
17614;SDS011;8926;49.720;6.576;2022-10-16T09:26:08;1.30;;;1.20;;
17614;SDS011;8926;49.720;6.576;2022-10-16T09:28:37;0.60;;;0.60;;
17614;SDS011;8926;49.720;6.576;2022-10-16T09:31:02;0.93;;;0.93;;
17614;SDS011;8926;49.720;6.576;2022-10-16T09:33:29;0.60;;;0.60;;
17614;SDS011;8926;49.720;6.576;2022-10-16T09:35:58;0.70;;;0.70;;
17614;SDS011;8926;49.720;6.576;2022-10-16T09:40:54;0.50;;;0.50;;
17614;SDS011;8926;49.720;6.576;2022-10-16T09:46:19;0.50;;;0.50;;
17614;SDS011;8926;49.720;6.576;2022-10-16T09:49:03;0.40;;;0.40;;
17614;SDS011;8926;49.720;6.576;2022-10-16T09:51:34;0.50;;;0.50;;
17614;SDS011;8926;49.720;6.576;2022-10-16T09:54:02;0.57;;;0.57;;
17614;SDS011;8926;49.720;6.576;2022-10-16T09:56:38;0.93;;;0.60;;
17614;SDS011;8926;49.720;6.576;2022-10-16T09:59:11;0.60;;;0.60;;
17614;SDS011;8926;49.720;6.576;2022-10-16T10:01:39;0.60;;;0.60;;
17614;SDS011;8926;49.720;6.576;2022-10-16T10:04:05;0.80;;;0.80;;
17614;SDS011;8926;49.720;6.576;2022-10-16T10:06:35;0.50;;;0.50;;
17614;SDS011;8926;49.720;6.576;2022-10-16T10:11:46;1.53;;;0.97;;
17614;SDS011;8926;49.720;6.576;2022-10-16T10:14:17;0.70;;;0.70;;
17614;SDS011;8926;49.720;6.576;2022-10-16T10:16:42;0.83;;;0.83;;
17614;SDS011;8926;49.720;6.576;2022-10-16T10:19:13;1.17;;;1.17;;
17614;SDS011;8926;49.720;6.576;2022-10-16T10:21:49;1.83;;;1.73;;
17614;SDS011;8926;49.720;6.576;2022-10-16T10:24:16;1.67;;;1.57;;
17614;SDS011;8926;49.720;6.576;2022-10-16T10:26:48;0.90;;;0.90;;
17614;SDS011;8926;49.720;6.576;2022-10-16T10:29:26;0.77;;;0.77;;
17614;SDS011;8926;49.720;6.576;2022-10-16T10:40:03;3.20;;;3.00;;
17614;SDS011;8926;49.720;6.576;2022-10-16T10:42:34;2.60;;;2.40;;
17614;SDS011;8926;49.720;6.576;2022-10-16T10:45:17;2.30;;;2.20;;
17614;SDS011;8926;49.720;6.576;2022-10-16T10:48:12;2.03;;;1.93;;
17614;SDS011;8926;49.720;6.576;2022-10-16T10:51:12;1.47;;;1.37;;
17614;SDS011;8926;49.720;6.576;2022-10-16T10:56:16;1.60;;;1.50;;
17614;SDS011;8926;49.720;6.576;2022-10-16T11:01:49;1.10;;;1.10;;
17614;SDS011;8926;49.720;6.576;2022-10-16T11:07:02;1.43;;;0.90;;
17614;SDS011;8926;49.720;6.576;2022-10-16T11:20:21;0.70;;;0.70;;
17614;SDS011;8926;49.720;6.576;2022-10-16T11:23:11;0.50;;;0.50;;
17614;SDS011;8926;49.720;6.576;2022-10-16T11:25:42;1.33;;;0.80;;
17614;SDS011;8926;49.720;6.576;2022-10-16T11:28:20;0.90;;;0.90;;
17614;SDS011;8926;49.720;6.576;2022-10-16T11:33:37;0.60;;;0.60;;
17614;SDS011;8926;49.720;6.576;2022-10-16T11:41:42;0.70;;;0.70;;
17614;SDS011;8926;49.720;6.576;2022-10-16T11:44:14;0.50;;;0.50;;
17614;SDS011;8926;49.720;6.576;2022-10-16T11:46:42;0.60;;;0.60;;
17614;SDS011;8926;49.720;6.576;2022-10-16T11:49:18;0.93;;;0.67;;
17614;SDS011;8926;49.720;6.576;2022-10-16T11:51:52;0.70;;;0.70;;
17614;SDS011;8926;49.720;6.576;2022-10-16T11:54:47;0.40;;;0.40;;
17614;SDS011;8926;49.720;6.576;2022-10-16T11:57:20;0.60;;;0.60;;
17614;SDS011;8926;49.720;6.576;2022-10-16T11:59:51;0.50;;;0.50;;
17614;SDS011;8926;49.720;6.576;2022-10-16T12:02:26;0.70;;;0.70;;
17614;SDS011;8926;49.720;6.576;2022-10-16T12:08:13;0.60;;;0.60;;
17614;SDS011;8926;49.720;6.576;2022-10-16T12:10:40;0.60;;;0.60;;
17614;SDS011;8926;49.720;6.576;2022-10-16T12:18:38;0.60;;;0.60;;
17614;SDS011;8926;49.720;6.576;2022-10-16T12:21:05;0.97;;;0.80;;
17614;SDS011;8926;49.720;6.576;2022-10-16T12:23:38;0.80;;;0.80;;
17614;SDS011;8926;49.720;6.576;2022-10-16T12:26:12;0.90;;;0.90;;
17614;SDS011;8926;49.720;6.576;2022-10-16T12:28:38;0.87;;;0.87;;
17614;SDS011;8926;49.720;6.576;2022-10-16T12:31:06;1.17;;;1.10;;
17614;SDS011;8926;49.720;6.576;2022-10-16T12:33:40;1.17;;;1.17;;
17614;SDS011;8926;49.720;6.576;2022-10-16T12:36:15;1.30;;;1.27;;
17614;SDS011;8926;49.720;6.576;2022-10-16T12:38:51;1.17;;;1.07;;
17614;SDS011;8926;49.720;6.576;2022-10-16T12:41:25;1.70;;;1.60;;
17614;SDS011;8926;49.720;6.576;2022-10-16T12:43:52;1.80;;;1.70;;
17614;SDS011;8926;49.720;6.576;2022-10-16T12:48:43;2.00;;;1.90;;
17614;SDS011;8926;49.720;6.576;2022-10-16T12:53:36;1.60;;;1.50;;
17614;SDS011;8926;49.720;6.576;2022-10-16T12:56:16;1.70;;;1.60;;
17614;SDS011;8926;49.720;6.576;2022-10-16T13:04:44;1.10;;;1.10;;
17614;SDS011;8926;49.720;6.576;2022-10-16T13:07:44;0.90;;;0.90;;
17614;SDS011;8926;49.720;6.576;2022-10-16T13:21:38;1.50;;;1.40;;
17614;SDS011;8926;49.720;6.576;2022-10-16T13:29:45;1.00;;;1.00;;
17614;SDS011;8926;49.720;6.576;2022-10-16T13:32:18;1.23;;;1.20;;
17614;SDS011;8926;49.720;6.576;2022-10-16T13:34:45;0.73;;;0.73;;
17614;SDS011;8926;49.720;6.576;2022-10-16T13:37:19;0.90;;;0.90;;
17614;SDS011;8926;49.720;6.576;2022-10-16T13:39:46;1.00;;;1.00;;
17614;SDS011;8926;49.720;6.576;2022-10-16T13:42:30;1.13;;;1.13;;
17614;SDS011;8926;49.720;6.576;2022-10-16T13:44:55;1.20;;;1.20;;
17614;SDS011;8926;49.720;6.576;2022-10-16T13:47:22;1.10;;;1.10;;
17614;SDS011;8926;49.720;6.576;2022-10-16T13:49:58;1.03;;;1.03;;
17614;SDS011;8926;49.720;6.576;2022-10-16T13:52:27;0.83;;;0.83;;
17614;SDS011;8926;49.720;6.576;2022-10-16T13:54:53;0.83;;;0.83;;
17614;SDS011;8926;49.720;6.576;2022-10-16T13:57:18;0.80;;;0.80;;
17614;SDS011;8926;49.720;6.576;2022-10-16T13:59:48;0.70;;;0.70;;
17614;SDS011;8926;49.720;6.576;2022-10-16T14:04:50;0.90;;;0.90;;
17614;SDS011;8926;49.720;6.576;2022-10-16T14:07:20;1.00;;;1.00;;
17614;SDS011;8926;49.720;6.576;2022-10-16T14:09:50;1.40;;;1.40;;
17614;SDS011;8926;49.720;6.576;2022-10-16T14:12:17;1.30;;;1.30;;
17614;SDS011;8926;49.720;6.576;2022-10-16T14:14:46;1.40;;;1.30;;
17614;SDS011;8926;49.720;6.576;2022-10-16T14:17:14;1.47;;;1.47;;
17614;SDS011;8926;49.720;6.576;2022-10-16T14:19:48;1.60;;;1.50;;
17614;SDS011;8926;49.720;6.576;2022-10-16T14:22:28;1.47;;;1.43;;
17614;SDS011;8926;49.720;6.576;2022-10-16T14:24:54;1.60;;;1.50;;
17614;SDS011;8926;49.720;6.576;2022-10-16T14:27:33;1.93;;;1.30;;
17614;SDS011;8926;49.720;6.576;2022-10-16T14:30:08;1.20;;;1.20;;
17614;SDS011;8926;49.720;6.576;2022-10-16T14:32:40;1.43;;;1.40;;
17614;SDS011;8926;49.720;6.576;2022-10-16T14:35:27;1.30;;;1.30;;
17614;SDS011;8926;49.720;6.576;2022-10-16T14:37:55;1.40;;;1.40;;
17614;SDS011;8926;49.720;6.576;2022-10-16T14:40:23;1.00;;;1.00;;
17614;SDS011;8926;49.720;6.576;2022-10-16T14:42:51;1.30;;;1.30;;
17614;SDS011;8926;49.720;6.576;2022-10-16T14:45:21;1.63;;;1.53;;
17614;SDS011;8926;49.720;6.576;2022-10-16T14:47:50;1.10;;;1.10;;
17614;SDS011;8926;49.720;6.576;2022-10-16T14:50:19;1.20;;;1.20;;
17614;SDS011;8926;49.720;6.576;2022-10-16T14:52:44;1.13;;;1.13;;
17614;SDS011;8926;49.720;6.576;2022-10-16T14:55:10;1.33;;;1.33;;
17614;SDS011;8926;49.720;6.576;2022-10-16T14:57:36;1.10;;;1.10;;
17614;SDS011;8926;49.720;6.576;2022-10-16T15:00:06;1.03;;;1.03;;
17614;SDS011;8926;49.720;6.576;2022-10-16T15:02:37;1.17;;;1.10;;
17614;SDS011;8926;49.720;6.576;2022-10-16T15:05:14;0.90;;;0.90;;
17614;SDS011;8926;49.720;6.576;2022-10-16T15:07:44;1.17;;;1.17;;
17614;SDS011;8926;49.720;6.576;2022-10-16T15:10:10;0.90;;;0.90;;
17614;SDS011;8926;49.720;6.576;2022-10-16T15:12:36;0.90;;;0.90;;
17614;SDS011;8926;49.720;6.576;2022-10-16T15:15:02;0.93;;;0.93;;
17614;SDS011;8926;49.720;6.576;2022-10-16T15:17:57;1.10;;;1.10;;
17614;SDS011;8926;49.720;6.576;2022-10-16T15:20:26;0.90;;;0.90;;
17614;SDS011;8926;49.720;6.576;2022-10-16T15:22:53;1.10;;;1.10;;
17614;SDS011;8926;49.720;6.576;2022-10-16T15:27:52;1.53;;;1.43;;
17614;SDS011;8926;49.720;6.576;2022-10-16T15:30:17;2.17;;;2.07;;
17614;SDS011;8926;49.720;6.576;2022-10-16T15:32:43;2.07;;;1.97;;
17614;SDS011;8926;49.720;6.576;2022-10-16T15:35:08;2.83;;;2.63;;
17614;SDS011;8926;49.720;6.576;2022-10-16T15:37:34;2.20;;;2.10;;
17614;SDS011;8926;49.720;6.576;2022-10-16T15:39:59;1.70;;;1.60;;
17614;SDS011;8926;49.720;6.576;2022-10-16T15:42:24;1.60;;;1.50;;
17614;SDS011;8926;49.720;6.576;2022-10-16T15:44:50;1.40;;;1.40;;
17614;SDS011;8926;49.720;6.576;2022-10-16T15:47:15;1.53;;;1.43;;
17614;SDS011;8926;49.720;6.576;2022-10-16T15:49:40;1.47;;;1.43;;
17614;SDS011;8926;49.720;6.576;2022-10-16T15:52:06;1.67;;;1.57;;
17614;SDS011;8926;49.720;6.576;2022-10-16T15:54:31;1.40;;;1.30;;
17614;SDS011;8926;49.720;6.576;2022-10-16T15:56:56;1.30;;;1.30;;
17614;SDS011;8926;49.720;6.576;2022-10-16T15:59:21;1.37;;;1.37;;
17614;SDS011;8926;49.720;6.576;2022-10-16T16:01:47;1.20;;;1.20;;
17614;SDS011;8926;49.720;6.576;2022-10-16T16:04:12;1.57;;;1.47;;
17614;SDS011;8926;49.720;6.576;2022-10-16T16:06:37;2.20;;;2.10;;
17614;SDS011;8926;49.720;6.576;2022-10-16T16:09:04;2.00;;;1.90;;
17614;SDS011;8926;49.720;6.576;2022-10-16T16:11:30;2.00;;;1.90;;
17614;SDS011;8926;49.720;6.576;2022-10-16T16:13:56;2.67;;;2.57;;
17614;SDS011;8926;49.720;6.576;2022-10-16T16:16:22;2.43;;;2.33;;
17614;SDS011;8926;49.720;6.576;2022-10-16T16:18:47;2.13;;;2.03;;
17614;SDS011;8926;49.720;6.576;2022-10-16T16:21:14;2.40;;;2.30;;
17614;SDS011;8926;49.720;6.576;2022-10-16T16:23:40;2.07;;;1.97;;
17614;SDS011;8926;49.720;6.576;2022-10-16T16:26:38;2.03;;;1.93;;
17614;SDS011;8926;49.720;6.576;2022-10-16T16:29:00;2.03;;;1.93;;
17614;SDS011;8926;49.720;6.576;2022-10-16T16:31:26;1.83;;;1.73;;
17614;SDS011;8926;49.720;6.576;2022-10-16T16:33:54;1.90;;;1.80;;
17614;SDS011;8926;49.720;6.576;2022-10-16T16:36:19;2.10;;;2.00;;
17614;SDS011;8926;49.720;6.576;2022-10-16T16:38:45;1.93;;;1.83;;
17614;SDS011;8926;49.720;6.576;2022-10-16T16:41:18;1.90;;;1.80;;
17614;SDS011;8926;49.720;6.576;2022-10-16T16:43:45;1.50;;;1.50;;
17614;SDS011;8926;49.720;6.576;2022-10-16T16:46:12;1.40;;;1.40;;
17614;SDS011;8926;49.720;6.576;2022-10-16T16:48:38;1.53;;;1.53;;
17614;SDS011;8926;49.720;6.576;2022-10-16T16:51:08;1.30;;;1.30;;
17614;SDS011;8926;49.720;6.576;2022-10-16T16:53:40;1.30;;;1.30;;
17614;SDS011;8926;49.720;6.576;2022-10-16T16:56:05;1.47;;;1.40;;
17614;SDS011;8926;49.720;6.576;2022-10-16T16:58:31;1.40;;;1.40;;
17614;SDS011;8926;49.720;6.576;2022-10-16T17:00:57;1.50;;;1.50;;
17614;SDS011;8926;49.720;6.576;2022-10-16T17:03:33;1.40;;;1.40;;
17614;SDS011;8926;49.720;6.576;2022-10-16T17:06:04;1.83;;;1.73;;
17614;SDS011;8926;49.720;6.576;2022-10-16T17:08:31;2.17;;;1.97;;